Terminal Aerodrome Forecast
Issued by NWS North Platte, NE

Home | Current Version | Previous Version | Text Only | Print | Product List | Glossary Off
Versions: 1 2 3 4 5 6 7 8 9 10 11 12 13 14 15

000
FTUS43 KLBF 241700
TAFVTN
TAF
KVTN 241740Z 2418/2518 20012KT P6SM BKN200
     FM242300 20015KT P6SM VCSH SCT025 OVC050
      TEMPO 2502/2504 2SM +TSRA BKN025CB
     FM250500 35006KT P6SM OVC100
     FM251200 VRB05KT P6SM BKN025
     FM251500 04008KT P6SM SCT025=

USA.gov is the U.S. government's official web portal to all federal, state and local government web resources and services.